createdAt,value
2023-05-05T00:00:06.189Z,8.4
2023-05-05T00:05:12.103Z,8.4
2023-05-05T00:10:18.215Z,8.4
2023-05-05T00:15:24.290Z,8.3
2023-05-05T00:20:30.454Z,7.9
2023-05-05T00:25:36.464Z,8
2023-05-05T00:30:42.614Z,8
2023-05-05T00:35:48.669Z,7.8
2023-05-05T00:40:54.771Z,7.8
2023-05-05T00:46:00.907Z,7.6
2023-05-05T00:51:06.944Z,7.3
2023-05-05T00:56:13.047Z,7.3
2023-05-05T01:01:19.176Z,7.3
2023-05-05T01:06:25.247Z,7.4
2023-05-05T01:11:36.996Z,7.4
2023-05-05T01:16:48.801Z,7.4
2023-05-05T01:21:54.828Z,7.4
2023-05-05T01:27:00.884Z,7.5
2023-05-05T01:32:06.993Z,7.4
2023-05-05T01:37:13.087Z,7.2
2023-05-05T01:42:19.168Z,7.4
2023-05-05T01:47:25.299Z,7.2
2023-05-05T01:52:31.364Z,7.1
2023-05-05T01:57:37.443Z,7.2
2023-05-05T02:02:43.591Z,7.3
2023-05-05T02:07:49.645Z,7.1
2023-05-05T02:12:55.755Z,7.2
2023-05-05T02:18:01.900Z,7.2
2023-05-05T02:23:07.999Z,7.1
2023-05-05T02:28:14.042Z,6.9
2023-05-05T02:33:20.138Z,6.7
2023-05-05T02:38:26.198Z,6.7
2023-05-05T02:43:32.303Z,6.8
2023-05-05T02:48:38.407Z,6.8
2023-05-05T02:53:44.489Z,6.7
2023-05-05T02:58:56.243Z,6.5
2023-05-05T03:04:02.332Z,6.5
2023-05-05T03:09:08.409Z,6.6
2023-05-05T03:14:14.504Z,6.5
2023-05-05T03:19:20.585Z,6.5
2023-05-05T03:24:26.706Z,6.7
2023-05-05T03:29:32.786Z,6.6
2023-05-05T03:34:38.871Z,6.6
2023-05-05T03:39:44.985Z,6.4
2023-05-05T03:44:51.095Z,6.3
2023-05-05T03:49:57.176Z,6.2
2023-05-05T03:55:03.269Z,6.5
2023-05-05T04:00:09.379Z,6.5
2023-05-05T04:05:15.444Z,6.4
2023-05-05T04:10:21.607Z,6.5
2023-05-05T04:15:27.665Z,6.5
2023-05-05T04:20:33.768Z,6.6
2023-05-05T04:25:39.885Z,6.9
2023-05-05T04:30:45.915Z,6.9
2023-05-05T04:35:52.022Z,6.9
2023-05-05T04:41:03.756Z,7
2023-05-05T04:46:15.520Z,7
2023-05-05T04:51:21.590Z,7.1
2023-05-05T04:56:27.680Z,7.4
2023-05-05T05:01:34.785Z,8.5
2023-05-05T05:06:39.862Z,12
2023-05-05T05:11:45.995Z,14
2023-05-05T05:16:52.077Z,15.4
2023-05-05T05:21:58.166Z,16.5
2023-05-05T05:27:04.253Z,17
2023-05-05T05:32:10.384Z,17.6
2023-05-05T05:37:16.420Z,17.1
2023-05-05T05:42:22.521Z,16.6
2023-05-05T05:47:28.628Z,16.9
2023-05-05T05:52:34.721Z,16.5
2023-05-05T05:57:40.805Z,15.3
2023-05-05T06:02:46.952Z,16.7
2023-05-05T06:07:53.002Z,16.8
2023-05-05T06:12:59.113Z,17.3
2023-05-05T06:18:05.206Z,17.3
2023-05-05T06:23:11.301Z,17.3
2023-05-05T06:28:23.017Z,18.7
2023-05-05T06:33:29.111Z,18.9
2023-05-05T06:38:35.194Z,19.6
2023-05-05T06:43:41.318Z,19
2023-05-05T06:48:47.386Z,19.6
2023-05-05T06:53:53.517Z,20.5
2023-05-05T06:58:59.595Z,20
2023-05-05T07:04:05.717Z,20.9
2023-05-05T07:09:11.774Z,19.8
2023-05-05T07:14:17.881Z,20.1
2023-05-05T07:19:24.008Z,19.7
2023-05-05T07:24:30.105Z,19.6
2023-05-05T07:29:36.178Z,20
2023-05-05T07:34:42.274Z,19
2023-05-05T07:39:48.373Z,20.3
2023-05-05T07:44:54.439Z,20
2023-05-05T07:50:00.552Z,18.7
2023-05-05T07:55:06.642Z,18.5
2023-05-05T08:00:12.789Z,17.7
2023-05-05T08:05:18.844Z,17.6
2023-05-05T08:10:30.584Z,17.7
2023-05-05T08:15:42.319Z,17.4
2023-05-05T08:20:48.458Z,17.8
2023-05-05T08:25:54.492Z,17.7
2023-05-05T08:31:00.635Z,15.5
2023-05-05T08:36:06.693Z,17
2023-05-05T08:41:12.776Z,17.5
2023-05-05T08:46:18.927Z,17.6
2023-05-05T08:51:24.980Z,18.7
2023-05-05T08:56:31.093Z,18.7
2023-05-05T09:01:37.241Z,16.1
2023-05-05T09:06:43.260Z,15.1
2023-05-05T09:11:50.351Z,14.6
2023-05-05T09:16:55.514Z,15
2023-05-05T09:22:01.542Z,15.3
2023-05-05T09:27:07.653Z,15.7
2023-05-05T09:32:13.770Z,15.7
2023-05-05T09:37:19.854Z,16.1
2023-05-05T09:42:25.910Z,15.8
2023-05-05T09:47:32.892Z,15.8
2023-05-05T09:52:38.107Z,16.2
2023-05-05T09:57:49.857Z,16.3
2023-05-05T10:03:01.615Z,16.2
2023-05-05T10:08:13.307Z,16.9
2023-05-05T10:13:25.109Z,16.7
2023-05-05T10:18:36.802Z,16.5
2023-05-05T10:23:42.860Z,16.5
2023-05-05T10:28:48.991Z,16.4
2023-05-05T10:33:55.090Z,16.4
2023-05-05T10:39:01.160Z,16.8
2023-05-05T10:44:07.256Z,17
2023-05-05T10:49:14.397Z,16.8
2023-05-05T10:54:19.486Z,17.1
2023-05-05T10:59:25.537Z,17.1
2023-05-05T11:04:31.640Z,17.1
2023-05-05T11:09:37.767Z,16.9
2023-05-05T11:14:43.849Z,17.4
2023-05-05T11:19:49.941Z,16.9
2023-05-05T11:24:55.982Z,17.1
2023-05-05T11:30:02.140Z,17.2
2023-05-05T11:35:08.191Z,17.8
2023-05-05T11:40:14.308Z,17.4
2023-05-05T11:45:20.396Z,17.6
2023-05-05T11:50:26.508Z,17.3
2023-05-05T11:55:32.581Z,17.5
2023-05-05T12:00:44.332Z,17.6
2023-05-05T12:05:56.052Z,17.6
2023-05-05T12:11:02.173Z,17.2
2023-05-05T12:16:08.275Z,16.8
2023-05-05T12:21:14.348Z,16.9
2023-05-05T12:26:20.423Z,16.6
2023-05-05T12:31:26.562Z,16.2
2023-05-05T12:36:32.666Z,16.2
2023-05-05T12:41:38.705Z,16.2
2023-05-05T12:46:44.864Z,16.6
2023-05-05T12:51:50.912Z,16.4
2023-05-05T12:56:57.034Z,17
2023-05-05T13:02:03.105Z,17.2
2023-05-05T13:07:09.210Z,17
2023-05-05T13:12:15.288Z,16.7
2023-05-05T13:17:21.429Z,16.9
2023-05-05T13:22:27.504Z,17.2
2023-05-05T13:27:33.582Z,17.1
2023-05-05T13:32:39.744Z,16.8
2023-05-05T13:37:45.751Z,16.7
2023-05-05T13:42:51.872Z,16.8
2023-05-05T13:48:03.626Z,16.9
2023-05-05T13:53:15.326Z,16.8
2023-05-05T13:58:21.435Z,16.4
2023-05-05T14:03:27.550Z,16
2023-05-05T14:08:33.627Z,16.5
2023-05-05T14:13:39.699Z,16.7
2023-05-05T14:18:45.810Z,16.4
2023-05-05T14:23:51.924Z,16.8
2023-05-05T14:28:57.996Z,16.7
2023-05-05T14:34:04.082Z,16.9
2023-05-05T14:39:10.175Z,16.8
2023-05-05T14:44:16.291Z,16.8
2023-05-05T14:49:22.389Z,16.7
2023-05-05T14:54:29.060Z,16.9
2023-05-05T14:59:34.598Z,16.6
2023-05-05T15:04:40.687Z,16.5
2023-05-05T15:09:46.746Z,16.3
2023-05-05T15:14:52.880Z,16.3
2023-05-05T15:19:58.959Z,16
2023-05-05T15:25:05.020Z,16.1
2023-05-05T15:30:11.153Z,15.8
2023-05-05T15:35:22.848Z,15.6
2023-05-05T15:40:28.984Z,15.2
2023-05-05T15:45:40.700Z,14.9
2023-05-05T15:50:46.789Z,15
2023-05-05T15:55:52.858Z,14.9
2023-05-05T16:00:58.977Z,14.9
2023-05-05T16:06:05.049Z,14.7
2023-05-05T16:11:11.152Z,14.6
2023-05-05T16:16:17.304Z,14.6
2023-05-05T16:26:29.478Z,14
2023-05-05T16:31:35.547Z,12.6
2023-05-05T16:36:43.647Z,11.8
2023-05-05T16:41:47.745Z,11.4
2023-05-05T16:46:53.830Z,11.7
2023-05-05T16:51:59.952Z,12.2
2023-05-05T16:57:06.061Z,12.6
2023-05-05T17:02:12.120Z,12.8
2023-05-05T17:07:18.246Z,13
2023-05-05T17:12:24.288Z,13.1
2023-05-05T17:17:30.448Z,13
2023-05-05T17:22:36.514Z,13
2023-05-05T17:27:48.250Z,13.1
2023-05-05T17:32:54.424Z,13.1
2023-05-05T17:38:00.425Z,13.1
2023-05-05T17:43:06.580Z,13.2
2023-05-05T17:48:12.614Z,13.2
2023-05-05T17:53:18.713Z,12.7
2023-05-05T17:58:24.921Z,12.5
2023-05-05T18:03:31.204Z,12.3
2023-05-05T18:08:37.149Z,12
2023-05-05T18:13:43.098Z,11.8
2023-05-05T18:18:49.227Z,11.5
2023-05-05T18:23:59.488Z,11.3
2023-05-05T18:29:01.370Z,11.3
2023-05-05T18:34:07.477Z,11.3
2023-05-05T18:39:13.682Z,11.5
2023-05-05T18:44:19.651Z,11.1
2023-05-05T18:49:25.779Z,11.1
2023-05-05T18:54:31.825Z,10.8
2023-05-05T18:59:37.916Z,10.8
2023-05-05T19:04:44.076Z,10.4
2023-05-05T19:09:55.767Z,10.1
2023-05-05T19:15:01.857Z,9.9
2023-05-05T19:20:13.630Z,9.6
2023-05-05T19:25:25.333Z,9.4
2023-05-05T19:30:31.438Z,9.4
2023-05-05T19:35:37.519Z,9.5
2023-05-05T19:40:43.605Z,9.7
2023-05-05T19:45:49.764Z,9.7
2023-05-05T19:50:55.776Z,9.8
2023-05-05T19:56:01.914Z,9.7
2023-05-05T20:01:08.019Z,9.6
2023-05-05T20:06:14.142Z,9.7
2023-05-05T20:11:20.209Z,9.9
2023-05-05T20:16:26.309Z,9.8
2023-05-05T20:21:32.352Z,9.5
2023-05-05T20:26:38.451Z,9.7
2023-05-05T20:31:44.557Z,9.7
2023-05-05T20:36:50.648Z,9.9
2023-05-05T20:41:56.758Z,9.8
2023-05-05T20:47:02.898Z,9.8
2023-05-05T20:52:08.929Z,9.6
2023-05-05T20:57:15.032Z,9.6
2023-05-05T21:02:21.115Z,9.4
2023-05-05T21:17:50.878Z,9.2
2023-05-05T21:22:56.789Z,9.1
2023-05-05T21:28:02.868Z,8.8
2023-05-05T21:58:39.605Z,8.6
2023-05-05T22:03:45.631Z,8.7
2023-05-05T22:08:51.661Z,8.8
2023-05-05T22:13:57.717Z,8.9
2023-05-05T22:19:03.869Z,8.8
2023-05-05T22:24:10.174Z,8.4
2023-05-05T22:29:16.031Z,8.5
2023-05-05T22:34:22.181Z,8.6
2023-05-05T22:39:28.213Z,8.6
2023-05-05T22:44:34.803Z,8.8
2023-05-05T22:49:40.485Z,8.7
2023-05-05T22:54:46.569Z,8.8
2023-05-05T22:59:58.288Z,9.1
2023-05-05T23:05:04.341Z,9.1
2023-05-05T23:10:10.576Z,8.8
2023-05-05T23:15:22.154Z,8.7
2023-05-05T23:20:28.249Z,8.3
2023-05-05T23:25:34.413Z,8.1
2023-05-05T23:30:40.484Z,8
2023-05-05T23:35:46.730Z,8.1
2023-05-05T23:40:52.633Z,8.3
2023-05-05T23:45:58.715Z,8.1
2023-05-05T23:51:04.789Z,8.5
2023-05-05T23:56:10.923Z,8.5
